createdAt,value
2022-10-17T00:00:46.145Z,298.90
2022-10-17T00:01:46.188Z,314.70
2022-10-17T00:02:46.134Z,307.30
2022-10-17T00:03:46.113Z,315.70
2022-10-17T00:04:46.109Z,302.20
2022-10-17T00:05:46.094Z,310.30
2022-10-17T00:06:46.139Z,305.70
2022-10-17T00:07:46.086Z,311.10
2022-10-17T00:08:46.070Z,305.50
2022-10-17T00:09:46.034Z,303.90
2022-10-17T00:10:46.042Z,299.80
2022-10-17T00:11:46.073Z,318.70
2022-10-17T00:12:46.017Z,303.10
2022-10-17T00:13:46.009Z,307.50
2022-10-17T00:14:46.013Z,302.90
2022-10-17T00:15:45.989Z,306.00
2022-10-17T00:16:46.022Z,316.60
2022-10-17T00:17:45.940Z,293.90
2022-10-17T00:18:45.947Z,296.60
2022-10-17T00:19:45.928Z,295.00
2022-10-17T00:20:45.926Z,304.60
2022-10-17T00:21:45.969Z,302.70
2022-10-17T00:22:45.924Z,270.20
2022-10-17T00:23:45.887Z,274.80
2022-10-17T00:24:45.893Z,256.80
2022-10-17T00:25:45.851Z,253.00
2022-10-17T00:26:45.903Z,244.10
2022-10-17T00:27:45.837Z,272.60
2022-10-17T00:28:45.898Z,254.20
2022-10-17T00:29:45.802Z,278.10
2022-10-17T00:30:45.793Z,271.90
2022-10-17T00:31:45.884Z,273.50
2022-10-17T00:32:45.798Z,282.10
2022-10-17T00:33:45.767Z,292.70
2022-10-17T00:34:45.773Z,304.60
2022-10-17T00:35:45.742Z,305.50
2022-10-17T00:36:45.783Z,311.50
2022-10-17T00:37:45.726Z,298.60
2022-10-17T00:38:45.728Z,317.50
2022-10-17T00:39:45.703Z,321.70
2022-10-17T00:40:45.751Z,326.80
2022-10-17T00:41:45.711Z,312.60
2022-10-17T00:42:45.668Z,302.70
2022-10-17T00:43:45.666Z,308.10
2022-10-17T00:44:45.651Z,316.10
2022-10-17T00:45:45.647Z,300.40
2022-10-17T00:46:45.665Z,307.80
2022-10-17T00:47:45.601Z,311.50
2022-10-17T00:48:45.592Z,315.40
2022-10-17T00:49:45.585Z,311.40
2022-10-17T00:50:45.575Z,314.90
2022-10-17T00:51:45.609Z,331.10
2022-10-17T00:52:45.541Z,302.10
2022-10-17T00:53:45.537Z,298.70
2022-10-17T00:54:45.522Z,288.50
2022-10-17T00:55:45.513Z,282.90
2022-10-17T00:56:45.543Z,313.10
2022-10-17T00:57:45.490Z,310.70
2022-10-17T00:58:45.466Z,250.70
2022-10-17T00:59:45.451Z,279.90
2022-10-17T01:00:45.479Z,237.20
2022-10-17T01:01:45.506Z,233.60
2022-10-17T01:02:45.432Z,220.20
2022-10-17T01:03:45.420Z,214.90
2022-10-17T01:04:45.410Z,232.70
2022-10-17T01:05:45.388Z,235.30
2022-10-17T01:06:45.439Z,268.60
2022-10-17T01:07:45.371Z,243.90
2022-10-17T01:08:45.359Z,214.20
2022-10-17T01:09:45.350Z,266.70
2022-10-17T01:10:45.338Z,249.90
2022-10-17T01:11:45.365Z,232.70
2022-10-17T01:12:45.325Z,257.70
2022-10-17T01:13:45.298Z,241.80
2022-10-17T01:14:45.298Z,245.80
2022-10-17T01:15:45.281Z,260.90
2022-10-17T01:16:45.325Z,263.60
2022-10-17T01:17:45.254Z,271.20
2022-10-17T01:18:45.259Z,278.90
2022-10-17T01:19:45.239Z,256.10
2022-10-17T01:20:45.233Z,289.50
2022-10-17T01:21:45.257Z,282.80
2022-10-17T01:22:45.202Z,275.70
2022-10-17T01:23:45.191Z,269.10
2022-10-17T01:24:45.188Z,270.60
2022-10-17T01:25:45.170Z,265.00
2022-10-17T01:26:45.203Z,268.60
2022-10-17T01:27:45.141Z,268.70
2022-10-17T01:28:45.187Z,263.80
2022-10-17T01:29:45.124Z,260.80
2022-10-17T01:30:45.107Z,268.50
2022-10-17T01:31:45.140Z,276.10
2022-10-17T01:32:45.083Z,274.10
2022-10-17T01:33:45.080Z,266.60
2022-10-17T01:34:45.059Z,272.10
2022-10-17T01:35:45.057Z,273.80
2022-10-17T01:36:45.113Z,278.30
2022-10-17T01:37:45.074Z,273.80
2022-10-17T01:38:45.033Z,275.00
2022-10-17T01:39:45.656Z,267.80
2022-10-17T01:40:45.017Z,269.90
2022-10-17T01:41:45.017Z,275.10
2022-10-17T01:42:44.990Z,273.30
2022-10-17T01:43:44.953Z,293.30
2022-10-17T01:44:44.967Z,299.20
2022-10-17T01:45:44.981Z,313.30
2022-10-17T01:46:45.010Z,329.90
2022-10-17T01:47:44.907Z,339.60
2022-10-17T01:48:44.912Z,351.30
2022-10-17T01:49:44.899Z,363.60
2022-10-17T01:50:44.890Z,369.90
2022-10-17T01:51:44.913Z,380.20
2022-10-17T01:52:44.871Z,391.50
2022-10-17T01:53:44.860Z,384.90
2022-10-17T01:54:44.850Z,250.80
2022-10-17T01:55:44.864Z,325.20
2022-10-17T01:56:44.863Z,385.80
2022-10-17T01:57:44.794Z,132.70
2022-10-17T01:58:44.796Z,273.60
2022-10-17T01:59:44.782Z,204.20
2022-10-17T02:00:44.783Z,301.80
2022-10-17T02:01:44.855Z,195.80
2022-10-17T02:02:44.745Z,293.30
2022-10-17T02:03:44.730Z,265.70
2022-10-17T02:04:44.740Z,269.50
2022-10-17T02:05:44.711Z,274.90
2022-10-17T02:06:44.753Z,226.20
2022-10-17T02:07:44.699Z,272.90
2022-10-17T02:08:44.702Z,265.30
2022-10-17T02:09:44.681Z,264.40
2022-10-17T02:10:44.664Z,266.70
2022-10-17T02:11:44.691Z,292.00
2022-10-17T02:12:44.647Z,294.00
2022-10-17T02:13:44.613Z,298.00
2022-10-17T02:14:44.614Z,306.30
2022-10-17T02:15:44.609Z,318.30
2022-10-17T02:16:44.638Z,316.80
2022-10-17T02:17:44.581Z,330.70
2022-10-17T02:18:44.578Z,351.70
2022-10-17T02:19:44.561Z,358.00
2022-10-17T02:20:44.560Z,360.20
2022-10-17T02:21:44.581Z,358.70
2022-10-17T02:22:44.532Z,142.40
2022-10-17T02:23:44.520Z,296.80
2022-10-17T02:24:44.503Z,202.70
2022-10-17T02:25:44.512Z,308.20
2022-10-17T02:26:44.538Z,242.50
2022-10-17T02:27:44.464Z,296.70
2022-10-17T02:28:44.480Z,211.20
2022-10-17T02:29:44.446Z,291.30
2022-10-17T02:30:44.434Z,293.80
2022-10-17T02:31:44.466Z,299.90
2022-10-17T02:32:46.692Z,258.30
2022-10-17T02:33:45.416Z,301.80
2022-10-17T02:34:44.385Z,299.30
2022-10-17T02:35:44.370Z,260.50
2022-10-17T02:36:44.410Z,304.00
2022-10-17T02:37:44.353Z,299.40
2022-10-17T02:38:44.350Z,301.20
2022-10-17T02:39:44.331Z,170.20
2022-10-17T02:40:44.324Z,278.10
2022-10-17T02:41:44.371Z,233.90
2022-10-17T02:42:44.298Z,283.30
2022-10-17T02:43:44.296Z,239.50
2022-10-17T02:44:44.285Z,241.00
2022-10-17T02:45:44.265Z,266.40
2022-10-17T02:46:44.301Z,261.20
2022-10-17T02:47:44.237Z,269.50
2022-10-17T02:48:44.233Z,288.40
2022-10-17T02:49:44.227Z,290.30
2022-10-17T02:50:44.220Z,296.10
2022-10-17T02:51:44.244Z,310.40
2022-10-17T02:52:44.193Z,314.70
2022-10-17T02:53:44.187Z,318.80
2022-10-17T02:54:44.163Z,275.90
2022-10-17T02:55:44.164Z,291.00
2022-10-17T02:56:44.184Z,197.20
2022-10-17T02:57:44.156Z,266.20
2022-10-17T02:58:44.118Z,218.30
2022-10-17T02:59:44.103Z,257.50
2022-10-17T03:00:44.101Z,231.70
2022-10-17T03:01:44.169Z,257.40
2022-10-17T03:02:44.086Z,255.40
2022-10-17T03:03:44.085Z,266.10
2022-10-17T03:04:44.055Z,267.80
2022-10-17T03:05:44.033Z,267.80
2022-10-17T03:06:44.061Z,286.30
2022-10-17T03:07:44.006Z,304.30
2022-10-17T03:08:44.011Z,318.20
2022-10-17T03:09:43.993Z,319.10
2022-10-17T03:10:43.986Z,347.10
2022-10-17T03:11:44.015Z,392.00
2022-10-17T03:12:43.962Z,409.20
2022-10-17T03:13:43.950Z,394.40
2022-10-17T03:14:43.943Z,388.00
2022-10-17T03:15:43.918Z,406.30
2022-10-17T03:16:43.957Z,397.80
2022-10-17T03:17:46.910Z,398.10
2022-10-17T03:18:46.595Z,133.20
2022-10-17T03:19:44.885Z,378.30
2022-10-17T03:20:43.877Z,281.20
2022-10-17T03:21:43.907Z,131.90
2022-10-17T03:22:43.837Z,112.10
2022-10-17T03:23:43.841Z,388.70
2022-10-17T03:24:43.828Z,239.90
2022-10-17T03:25:43.818Z,273.30
2022-10-17T03:26:43.907Z,282.20
2022-10-17T03:27:43.786Z,315.20
2022-10-17T03:28:43.818Z,134.50
2022-10-17T03:29:43.773Z,338.30
2022-10-17T03:30:43.758Z,288.20
2022-10-17T03:31:43.787Z,107.20
2022-10-17T03:32:43.747Z,334.70
2022-10-17T03:33:43.721Z,245.00
2022-10-17T03:34:43.727Z,125.10
2022-10-17T03:35:43.738Z,401.50
2022-10-17T03:36:43.735Z,187.20
2022-10-17T03:37:43.665Z,159.20
2022-10-17T03:38:43.661Z,416.90
2022-10-17T03:39:43.654Z,121.10
2022-10-17T03:40:43.651Z,356.80
2022-10-17T03:41:43.681Z,110.60
2022-10-17T03:42:43.631Z,168.80
2022-10-17T03:43:43.612Z,232.10
2022-10-17T03:44:43.602Z,283.20
2022-10-17T03:45:43.593Z,123.10
2022-10-17T03:46:43.621Z,187.30
2022-10-17T03:47:43.578Z,270.30
2022-10-17T03:48:43.585Z,216.90
2022-10-17T03:49:43.547Z,115.20
2022-10-17T03:50:43.518Z,173.10
2022-10-17T03:51:43.568Z,278.00
2022-10-17T03:52:43.506Z,146.20
2022-10-17T03:53:43.503Z,150.30
2022-10-17T03:54:43.484Z,211.10
2022-10-17T03:55:43.479Z,238.80
2022-10-17T03:56:43.576Z,183.70
2022-10-17T03:57:45.481Z,174.10
2022-10-17T03:58:43.443Z,201.40
2022-10-17T03:59:43.433Z,229.80
2022-10-17T04:00:43.411Z,193.30
2022-10-17T04:01:43.532Z,213.20
2022-10-17T04:02:43.395Z,232.00
2022-10-17T04:03:43.389Z,218.30
2022-10-17T04:04:43.368Z,234.00
2022-10-17T04:05:43.353Z,288.10
2022-10-17T04:06:43.400Z,295.00
2022-10-17T04:07:43.349Z,237.00
2022-10-17T04:08:43.328Z,237.50
2022-10-17T04:09:43.311Z,234.80
2022-10-17T04:10:43.300Z,249.00
2022-10-17T04:11:43.337Z,288.00
2022-10-17T04:12:43.291Z,236.90
2022-10-17T04:13:43.284Z,272.40
2022-10-17T04:14:43.261Z,239.70
2022-10-17T04:15:43.265Z,272.50
2022-10-17T04:16:43.289Z,280.70
2022-10-17T04:17:43.220Z,250.40
2022-10-17T04:18:43.223Z,245.00
2022-10-17T04:19:43.209Z,263.20
2022-10-17T04:20:43.186Z,223.20
2022-10-17T04:21:43.237Z,239.00
2022-10-17T04:22:43.158Z,237.90
2022-10-17T04:23:43.163Z,239.70
2022-10-17T04:24:43.142Z,199.00
2022-10-17T04:25:43.145Z,213.00
2022-10-17T04:26:43.153Z,233.40
2022-10-17T04:27:43.117Z,247.00
2022-10-17T04:28:43.103Z,217.10
2022-10-17T04:29:43.083Z,228.80
2022-10-17T04:30:45.504Z,258.80
2022-10-17T04:31:43.250Z,250.20
2022-10-17T04:32:43.055Z,233.50
2022-10-17T04:33:43.064Z,212.10
2022-10-17T04:34:43.033Z,243.50
2022-10-17T04:35:43.061Z,229.60
2022-10-17T04:36:43.058Z,208.20
2022-10-17T04:37:43.022Z,215.20
2022-10-17T04:38:42.978Z,236.20
2022-10-17T04:39:42.955Z,251.60
2022-10-17T04:40:42.943Z,231.60
2022-10-17T04:41:42.994Z,245.10
2022-10-17T04:42:42.946Z,229.30
2022-10-17T04:43:45.532Z,246.10
2022-10-17T04:44:43.908Z,224.30
2022-10-17T04:45:42.910Z,225.90
2022-10-17T04:46:42.942Z,216.60
2022-10-17T04:47:42.907Z,240.60
2022-10-17T04:48:42.868Z,224.70
2022-10-17T04:49:42.883Z,255.60
2022-10-17T04:50:42.849Z,218.70
2022-10-17T04:51:42.887Z,239.90
2022-10-17T04:52:42.834Z,287.80
2022-10-17T04:53:42.812Z,241.00
2022-10-17T04:54:42.827Z,263.10
2022-10-17T04:55:42.793Z,280.00
2022-10-17T04:56:42.820Z,221.60
2022-10-17T04:57:42.777Z,255.20
2022-10-17T04:58:42.764Z,274.10
2022-10-17T04:59:42.763Z,224.80
2022-10-17T05:00:42.807Z,274.40
2022-10-17T05:01:42.769Z,287.80
2022-10-17T05:02:42.714Z,244.70
2022-10-17T05:03:42.711Z,273.10
2022-10-17T05:04:42.694Z,254.00
2022-10-17T05:05:42.687Z,263.40
2022-10-17T05:06:42.727Z,290.60
2022-10-17T05:07:42.649Z,264.80
2022-10-17T05:08:42.647Z,275.50
2022-10-17T05:09:42.633Z,279.90
2022-10-17T05:10:42.612Z,243.90
2022-10-17T05:11:42.670Z,290.80
2022-10-17T05:12:42.618Z,239.10
2022-10-17T05:13:42.595Z,269.00
2022-10-17T05:14:42.597Z,243.60
2022-10-17T05:15:42.573Z,231.00
2022-10-17T05:16:42.574Z,293.30
2022-10-17T05:17:42.600Z,257.80
2022-10-17T05:18:42.529Z,253.00
2022-10-17T05:19:42.569Z,255.40
2022-10-17T05:20:42.522Z,272.40
2022-10-17T05:21:42.520Z,230.50
2022-10-17T05:22:42.561Z,262.10
2022-10-17T05:23:42.473Z,214.90
2022-10-17T05:24:42.471Z,256.80
2022-10-17T05:25:42.459Z,229.20
2022-10-17T05:26:42.445Z,260.90
2022-10-17T05:27:42.483Z,243.80
2022-10-17T05:28:42.501Z,258.30
2022-10-17T05:29:42.425Z,219.30
2022-10-17T05:30:42.413Z,258.80
2022-10-17T05:31:42.415Z,270.50
2022-10-17T05:32:42.445Z,243.00
2022-10-17T05:33:42.387Z,249.80
2022-10-17T05:34:42.354Z,240.20
2022-10-17T05:35:42.366Z,228.00
2022-10-17T05:36:42.335Z,244.90
2022-10-17T05:37:42.364Z,247.50
2022-10-17T05:38:42.310Z,191.40
2022-10-17T05:39:42.284Z,260.80
2022-10-17T05:40:42.274Z,211.50
2022-10-17T05:41:42.270Z,232.50
2022-10-17T05:42:42.340Z,216.10
2022-10-17T05:43:42.263Z,221.50
2022-10-17T05:44:42.264Z,232.10
2022-10-17T05:45:42.246Z,224.50
2022-10-17T05:46:42.228Z,226.80
2022-10-17T05:47:42.293Z,206.40
2022-10-17T05:48:42.187Z,196.20
2022-10-17T05:49:51.261Z,187.90
2022-10-17T05:50:43.174Z,189.40
2022-10-17T05:51:42.183Z,211.20
2022-10-17T05:52:45.068Z,224.60
2022-10-17T05:53:42.168Z,204.10
2022-10-17T05:54:42.135Z,216.50
2022-10-17T05:55:42.115Z,246.30
2022-10-17T05:56:42.132Z,242.80
2022-10-17T05:57:42.144Z,244.90
2022-10-17T05:58:51.177Z,278.80
2022-10-17T05:59:43.081Z,257.30
2022-10-17T06:00:42.181Z,245.10
2022-10-17T06:01:42.118Z,280.70
2022-10-17T06:02:42.120Z,247.80
2022-10-17T06:03:42.048Z,227.50
2022-10-17T06:04:42.016Z,268.70
2022-10-17T06:05:42.037Z,213.30
2022-10-17T06:06:41.986Z,225.20
2022-10-17T06:07:42.028Z,239.80
2022-10-17T06:08:41.964Z,214.10
2022-10-17T06:09:41.983Z,274.90
2022-10-17T06:10:41.951Z,178.60
2022-10-17T06:11:41.937Z,189.80
2022-10-17T06:12:41.978Z,191.10
2022-10-17T06:13:41.919Z,241.10
2022-10-17T06:14:41.885Z,170.10
2022-10-17T06:15:41.902Z,236.00
2022-10-17T06:16:41.900Z,251.50
2022-10-17T06:17:41.906Z,150.90
2022-10-17T06:18:41.880Z,153.00
2022-10-17T06:19:41.853Z,262.50
2022-10-17T06:20:45.320Z,251.10
2022-10-17T06:21:41.830Z,202.10
2022-10-17T06:22:41.862Z,178.60
2022-10-17T06:23:41.792Z,130.60
2022-10-17T06:24:41.784Z,168.30
2022-10-17T06:25:41.777Z,174.30
2022-10-17T06:26:41.775Z,149.40
2022-10-17T06:27:41.848Z,174.50
2022-10-17T06:28:41.824Z,259.50
2022-10-17T06:29:41.751Z,142.10
2022-10-17T06:30:41.719Z,178.70
2022-10-17T06:31:41.711Z,240.60
2022-10-17T06:32:41.758Z,159.20
2022-10-17T06:33:41.693Z,184.60
2022-10-17T06:34:41.678Z,205.10
2022-10-17T06:35:41.679Z,155.40
2022-10-17T06:36:41.643Z,229.70
2022-10-17T06:37:41.985Z,239.20
2022-10-17T06:38:41.614Z,235.30
2022-10-17T06:39:41.615Z,200.60
2022-10-17T06:40:41.607Z,121.60
2022-10-17T06:41:41.610Z,136.90
2022-10-17T06:42:41.665Z,239.40
2022-10-17T06:43:41.592Z,221.00
2022-10-17T06:44:41.575Z,196.30
2022-10-17T06:45:41.548Z,228.40
2022-10-17T06:46:41.546Z,188.20
2022-10-17T06:47:41.562Z,127.70
2022-10-17T06:48:41.530Z,124.40
2022-10-17T06:49:41.510Z,139.90
2022-10-17T06:50:41.540Z,116.50
2022-10-17T06:51:41.485Z,104.10
2022-10-17T06:52:41.526Z,84.00
2022-10-17T06:53:41.461Z,196.10
2022-10-17T06:54:41.444Z,249.30
2022-10-17T06:55:41.439Z,215.20
2022-10-17T06:56:41.432Z,284.30
2022-10-17T06:57:41.472Z,66.60
2022-10-17T06:58:41.403Z,174.10
2022-10-17T06:59:41.392Z,267.10
2022-10-17T07:00:41.564Z,123.20
2022-10-17T07:01:43.254Z,198.30
2022-10-17T07:02:41.498Z,89.80
2022-10-17T07:03:41.406Z,149.90
2022-10-17T07:04:41.335Z,108.20
2022-10-17T07:05:41.307Z,107.10
2022-10-17T07:06:41.304Z,106.80
2022-10-17T07:07:44.164Z,117.20
2022-10-17T07:08:41.271Z,72.90
2022-10-17T07:09:41.260Z,99.40
2022-10-17T07:10:41.273Z,80.80
2022-10-17T07:11:41.264Z,68.10
2022-10-17T07:12:41.317Z,72.60
2022-10-17T07:13:41.234Z,67.70
2022-10-17T07:14:41.218Z,80.60
2022-10-17T07:15:41.221Z,78.80
2022-10-17T07:16:41.186Z,82.70
2022-10-17T07:17:41.238Z,67.50
2022-10-17T07:18:41.168Z,107.40
2022-10-17T07:19:41.171Z,153.90
2022-10-17T07:20:41.145Z,159.30
2022-10-17T07:21:41.157Z,274.50
2022-10-17T07:22:41.219Z,979.10
2022-10-17T07:23:41.142Z,999.90
2022-10-17T07:24:41.146Z,991.00
2022-10-17T07:25:41.111Z,999.90
2022-10-17T07:26:41.071Z,999.90
2022-10-17T07:27:41.124Z,999.90
2022-10-17T07:28:41.160Z,999.90
2022-10-17T07:29:41.043Z,999.90
2022-10-17T07:30:41.030Z,999.90
2022-10-17T07:31:41.021Z,999.90
2022-10-17T07:32:41.075Z,999.90
2022-10-17T07:33:41.084Z,999.90
2022-10-17T07:34:41.016Z,999.90
2022-10-17T07:35:40.990Z,999.90
2022-10-17T07:36:40.959Z,999.90
2022-10-17T07:37:41.013Z,999.90
2022-10-17T07:38:40.950Z,999.90
2022-10-17T07:39:40.955Z,999.90
2022-10-17T07:40:40.919Z,999.90
2022-10-17T07:41:40.921Z,999.90
2022-10-17T07:42:40.904Z,999.90
2022-10-17T07:43:40.941Z,999.90
2022-10-17T07:44:40.891Z,999.90
2022-10-17T07:45:40.869Z,999.90
2022-10-17T07:46:40.852Z,999.90
2022-10-17T07:47:40.841Z,999.90
2022-10-17T07:48:40.881Z,999.90
2022-10-17T07:49:40.821Z,999.90
2022-10-17T07:50:40.829Z,999.90
2022-10-17T07:51:40.865Z,999.90
2022-10-17T07:52:40.810Z,999.90
2022-10-17T07:53:42.762Z,999.90
2022-10-17T07:54:40.778Z,999.90
2022-10-17T07:55:40.760Z,999.90
2022-10-17T07:56:40.743Z,999.90
2022-10-17T07:57:40.733Z,999.90
2022-10-17T07:58:40.781Z,999.90
2022-10-17T07:59:40.727Z,999.90
2022-10-17T08:00:40.833Z,999.90
2022-10-17T08:01:40.701Z,999.90
2022-10-17T08:02:40.694Z,999.90
2022-10-17T08:03:40.701Z,999.90
2022-10-17T08:04:40.662Z,999.90
2022-10-17T08:05:40.646Z,999.90
2022-10-17T08:06:40.623Z,999.90
2022-10-17T08:07:40.623Z,999.90
2022-10-17T08:08:40.690Z,999.90
2022-10-17T08:09:40.601Z,999.90
2022-10-17T08:10:40.615Z,999.90
2022-10-17T08:11:40.596Z,999.90
2022-10-17T08:12:40.568Z,999.90
2022-10-17T08:13:40.600Z,999.90
2022-10-17T08:14:40.541Z,999.90
2022-10-17T08:15:40.517Z,999.90
2022-10-17T08:16:40.531Z,999.90
2022-10-17T08:17:40.525Z,999.90
2022-10-17T08:18:40.562Z,999.90
2022-10-17T08:19:40.512Z,999.90
2022-10-17T08:20:40.488Z,999.90
2022-10-17T08:21:40.461Z,700.30
2022-10-17T08:22:40.462Z,999.90
2022-10-17T08:23:40.503Z,221.50
2022-10-17T08:24:40.459Z,21.10
2022-10-17T08:25:40.461Z,59.20
2022-10-17T08:26:43.383Z,23.20
2022-10-17T08:27:41.397Z,28.40
2022-10-17T08:28:40.507Z,59.40
2022-10-17T08:29:40.380Z,87.90
2022-10-17T08:30:40.361Z,597.00
2022-10-17T08:31:40.358Z,663.20
2022-10-17T08:32:40.354Z,999.90
2022-10-17T08:33:40.366Z,999.90
2022-10-17T08:34:40.311Z,999.90
2022-10-17T08:35:40.320Z,999.90
2022-10-17T08:36:40.299Z,999.90
2022-10-17T08:37:40.313Z,503.90
2022-10-17T08:38:43.033Z,999.90
2022-10-17T08:39:40.288Z,999.90
2022-10-17T08:40:40.266Z,999.90
2022-10-17T08:41:40.269Z,999.90
2022-10-17T08:42:40.244Z,999.90
2022-10-17T08:43:40.270Z,999.90
2022-10-17T08:44:40.227Z,487.90
2022-10-17T08:45:40.200Z,445.40
2022-10-17T08:46:40.215Z,25.50
2022-10-17T08:47:40.177Z,24.20
2022-10-17T08:48:43.974Z,33.50
2022-10-17T08:49:41.157Z,140.20
2022-10-17T08:50:40.180Z,13.80
2022-10-17T08:51:40.134Z,10.70
2022-10-17T08:52:40.139Z,11.50
2022-10-17T08:53:40.158Z,10.60
2022-10-17T08:54:40.103Z,11.40
2022-10-17T08:55:42.937Z,12.20
2022-10-17T08:56:48.545Z,12.20
2022-10-17T08:57:41.082Z,12.10
2022-10-17T08:58:40.154Z,12.00
2022-10-17T08:59:40.022Z,12.10
2022-10-17T09:00:40.042Z,12.80
2022-10-17T09:01:40.010Z,13.20
2022-10-17T09:02:40.054Z,12.60
2022-10-17T09:03:40.047Z,12.50
2022-10-17T09:04:39.996Z,13.10
2022-10-17T09:05:39.993Z,14.10
2022-10-17T09:06:39.985Z,13.40
2022-10-17T09:07:39.955Z,11.20
2022-10-17T09:08:40.014Z,13.20
2022-10-17T09:09:39.934Z,12.00
2022-10-17T09:10:39.955Z,11.70
2022-10-17T09:11:39.922Z,12.50
2022-10-17T09:12:39.914Z,11.90
2022-10-17T09:13:39.929Z,14.70
2022-10-17T09:14:39.883Z,13.80
2022-10-17T09:15:39.887Z,11.40
2022-10-17T09:16:39.855Z,13.10
2022-10-17T09:17:39.856Z,11.50
2022-10-17T09:18:39.885Z,10.20
2022-10-17T09:19:39.841Z,10.20
2022-10-17T09:20:39.841Z,9.30
2022-10-17T09:21:39.793Z,9.20
2022-10-17T09:22:39.819Z,11.30
2022-10-17T09:23:42.431Z,11.60
2022-10-17T09:24:39.767Z,12.70
2022-10-17T09:25:39.755Z,12.90
2022-10-17T09:26:39.773Z,11.80
2022-10-17T09:27:39.738Z,15.10
2022-10-17T09:28:39.804Z,11.90
2022-10-17T09:29:43.708Z,13.40
2022-10-17T09:30:45.205Z,15.10
2022-10-17T09:31:40.689Z,16.30
2022-10-17T09:32:39.693Z,16.40
2022-10-17T09:33:53.848Z,16.50
2022-10-17T09:34:40.658Z,15.10
2022-10-17T09:35:39.655Z,15.80
2022-10-17T09:36:39.661Z,15.60
2022-10-17T09:37:39.615Z,14.90
2022-10-17T09:38:39.683Z,15.00
2022-10-17T09:39:39.641Z,16.60
2022-10-17T09:40:39.580Z,16.00
2022-10-17T09:41:47.462Z,15.30
2022-10-17T09:42:40.575Z,12.30
2022-10-17T09:43:39.635Z,15.70
2022-10-17T09:44:39.562Z,18.10
2022-10-17T09:45:39.545Z,17.00
2022-10-17T09:46:39.546Z,14.20
2022-10-17T09:47:39.529Z,14.80
2022-10-17T09:48:39.559Z,13.80
2022-10-17T09:49:39.500Z,12.80
2022-10-17T09:50:39.514Z,14.00
2022-10-17T09:51:39.484Z,12.70
2022-10-17T09:52:39.472Z,16.30
2022-10-17T09:53:39.495Z,15.70
2022-10-17T09:54:39.445Z,13.30
2022-10-17T09:55:39.432Z,11.50
2022-10-17T09:56:39.411Z,16.00
2022-10-17T09:57:39.394Z,14.20
2022-10-17T09:58:39.428Z,11.10
2022-10-17T09:59:39.397Z,11.50
2022-10-17T10:00:39.439Z,11.50
2022-10-17T10:01:39.356Z,11.00
2022-10-17T10:02:39.370Z,15.10
2022-10-17T10:03:39.405Z,13.50
2022-10-17T10:04:47.030Z,17.50
2022-10-17T10:05:40.315Z,12.20
2022-10-17T10:06:39.305Z,17.40
2022-10-17T10:07:39.345Z,12.60
2022-10-17T10:08:39.334Z,13.90
2022-10-17T10:09:40.223Z,12.70
2022-10-17T10:10:39.264Z,10.90
2022-10-17T10:11:39.268Z,11.50
2022-10-17T10:12:39.261Z,9.90
2022-10-17T10:13:39.284Z,14.30
2022-10-17T10:14:39.226Z,14.50
2022-10-17T10:15:39.225Z,10.80
2022-10-17T10:16:39.203Z,10.20
2022-10-17T10:17:39.173Z,10.70
2022-10-17T10:18:39.208Z,11.00
2022-10-17T10:19:39.159Z,9.50
2022-10-17T10:20:39.168Z,9.80
2022-10-17T10:21:39.144Z,8.60
2022-10-17T10:22:39.155Z,9.40
2022-10-17T10:23:39.170Z,9.40
2022-10-17T10:24:39.104Z,9.60
2022-10-17T10:25:39.082Z,9.90
2022-10-17T10:26:39.079Z,9.90
2022-10-17T10:27:39.079Z,11.00
2022-10-17T10:28:39.200Z,11.50
2022-10-17T10:29:39.083Z,11.10
2022-10-17T10:30:40.025Z,10.20
2022-10-17T10:31:39.045Z,11.00
2022-10-17T10:32:39.015Z,11.60
2022-10-17T10:33:41.570Z,11.50
2022-10-17T10:34:39.072Z,10.30
2022-10-17T10:35:38.992Z,10.30
2022-10-17T10:36:39.002Z,11.20
2022-10-17T10:37:38.974Z,11.10
2022-10-17T10:38:39.028Z,10.90
2022-10-17T10:39:38.961Z,11.10
2022-10-17T10:40:38.946Z,11.50
2022-10-17T10:41:38.914Z,9.90
2022-10-17T10:42:38.910Z,10.40
2022-10-17T10:43:38.996Z,10.50
2022-10-17T10:44:38.898Z,10.30
2022-10-17T10:45:54.354Z,10.10
2022-10-17T10:46:39.881Z,9.70
2022-10-17T10:47:38.864Z,10.00
2022-10-17T10:48:38.887Z,9.40
2022-10-17T10:49:38.838Z,9.40
2022-10-17T10:50:42.987Z,8.60
2022-10-17T10:51:39.819Z,9.10
2022-10-17T10:52:38.813Z,9.50
2022-10-17T10:53:38.831Z,9.50
2022-10-17T10:55:38.751Z,9.30
2022-10-17T10:56:38.762Z,9.80
2022-10-17T10:57:38.751Z,9.90
2022-10-17T10:58:41.861Z,10.10
2022-10-17T10:59:38.722Z,10.30
2022-10-17T11:00:38.798Z,10.70
2022-10-17T11:01:38.699Z,11.30
2022-10-17T11:02:38.721Z,11.40
2022-10-17T11:03:38.731Z,10.50
2022-10-17T11:04:38.703Z,9.90
2022-10-17T11:05:38.653Z,10.20
2022-10-17T11:06:38.661Z,10.10
2022-10-17T11:07:38.628Z,9.50
2022-10-17T11:08:38.675Z,9.60
2022-10-17T11:09:38.615Z,9.10
2022-10-17T11:10:38.620Z,8.80
2022-10-17T11:11:38.592Z,8.60
2022-10-17T11:12:38.613Z,7.80
2022-10-17T11:13:38.640Z,8.20
2022-10-17T11:14:38.576Z,7.80
2022-10-17T11:15:38.568Z,7.60
2022-10-17T11:16:38.565Z,7.50
2022-10-17T11:17:38.542Z,8.20
2022-10-17T11:18:38.572Z,7.60
2022-10-17T11:19:38.507Z,7.60
2022-10-17T11:20:38.505Z,7.30
2022-10-17T11:21:38.541Z,7.50
2022-10-17T11:22:38.715Z,7.70
2022-10-17T11:23:38.503Z,7.60
2022-10-17T11:24:38.473Z,7.50
2022-10-17T11:25:38.473Z,7.90
2022-10-17T11:26:38.446Z,7.90
2022-10-17T11:27:38.433Z,7.80
2022-10-17T11:28:38.492Z,7.50
2022-10-17T11:29:38.405Z,7.70
2022-10-17T11:30:38.435Z,7.60
2022-10-17T11:31:38.392Z,7.30
2022-10-17T11:32:38.380Z,7.20
2022-10-17T11:33:38.419Z,7.40
2022-10-17T11:34:38.354Z,7.00
2022-10-17T11:35:38.333Z,8.00
2022-10-17T11:36:38.342Z,7.30
2022-10-17T11:37:39.534Z,6.80
2022-10-17T11:38:38.346Z,7.10
2022-10-17T11:39:38.358Z,7.30
2022-10-17T11:40:38.306Z,7.00
2022-10-17T11:41:38.294Z,7.10
2022-10-17T11:42:38.280Z,7.10
2022-10-17T11:43:38.310Z,7.10
2022-10-17T11:44:38.271Z,7.10
2022-10-17T11:45:38.241Z,6.90
2022-10-17T11:46:38.242Z,6.90
2022-10-17T11:47:38.216Z,7.30
2022-10-17T11:48:38.256Z,6.80
2022-10-17T11:49:40.216Z,7.30
2022-10-17T11:53:39.182Z,6.80
2022-10-17T11:54:38.142Z,7.00
2022-10-17T11:55:38.146Z,6.90
2022-10-17T11:56:42.661Z,7.30
2022-10-17T11:57:38.113Z,6.90
2022-10-17T11:58:38.175Z,7.10
2022-10-17T11:59:38.107Z,7.60
2022-10-17T12:00:40.768Z,7.50
2022-10-17T12:01:38.239Z,7.90
2022-10-17T12:02:38.072Z,7.90
2022-10-17T12:03:38.123Z,8.00
2022-10-17T12:04:38.068Z,8.50
2022-10-17T12:05:38.027Z,8.30
2022-10-17T12:06:38.015Z,8.40
2022-10-17T12:07:38.046Z,9.00
2022-10-17T12:08:38.032Z,9.00
2022-10-17T12:09:37.979Z,8.30
2022-10-17T12:10:37.977Z,8.30
2022-10-17T12:11:37.968Z,7.70
2022-10-17T12:12:37.936Z,7.80
2022-10-17T12:13:37.977Z,7.80
2022-10-17T12:14:37.925Z,7.30
2022-10-17T12:15:37.918Z,7.20
2022-10-17T12:16:37.936Z,7.20
2022-10-17T12:17:37.902Z,7.00
2022-10-17T12:18:37.934Z,7.00
2022-10-17T12:19:37.902Z,7.60
2022-10-17T12:20:37.845Z,6.60
2022-10-17T12:21:41.469Z,6.90
2022-10-17T12:22:38.821Z,6.70
2022-10-17T12:23:37.897Z,7.00
2022-10-17T12:24:37.825Z,6.80
2022-10-17T12:25:37.835Z,6.90
2022-10-17T12:26:37.796Z,6.90
2022-10-17T12:27:37.798Z,7.00
2022-10-17T12:28:37.901Z,7.00
2022-10-17T12:29:37.782Z,6.80
2022-10-17T12:30:37.755Z,7.10
2022-10-17T12:31:37.758Z,7.30
2022-10-17T12:32:53.356Z,7.00
2022-10-17T12:33:38.773Z,7.10
2022-10-17T12:34:37.776Z,7.10
2022-10-17T12:35:37.735Z,6.70
2022-10-17T12:36:37.702Z,6.60
2022-10-17T12:37:37.702Z,6.50
2022-10-17T12:38:37.731Z,6.80
2022-10-17T12:39:37.689Z,6.50
2022-10-17T12:40:37.668Z,6.90
2022-10-17T12:41:37.650Z,6.60
2022-10-17T12:42:37.635Z,6.60
2022-10-17T12:43:39.714Z,6.50
2022-10-17T12:44:38.618Z,6.60